createdAt,value
2018-10-21T00:00:22.482Z,15.90
2018-10-21T00:02:51.751Z,15.88
2018-10-21T00:05:21.354Z,15.40
2018-10-21T00:07:51.767Z,14.10
2018-10-21T00:10:21.348Z,15.48
2018-10-21T00:12:50.778Z,15.98
2018-10-21T00:15:20.873Z,18.80
2018-10-21T00:17:50.205Z,16.93
2018-10-21T00:20:20.166Z,16.62
2018-10-21T00:22:49.559Z,18.65
2018-10-21T00:25:19.567Z,18.07
2018-10-21T00:27:50.449Z,16.42
2018-10-21T00:30:20.341Z,16.62
2018-10-21T00:32:52.826Z,15.30
2018-10-21T00:35:22.666Z,15.18
2018-10-21T00:37:51.983Z,14.83
2018-10-21T00:40:24.010Z,15.83
2018-10-21T00:42:53.193Z,15.08
2018-10-21T00:45:23.436Z,16.00
2018-10-21T00:47:53.088Z,16.45
2018-10-21T00:50:22.890Z,19.00
2018-10-21T00:52:53.155Z,16.85
2018-10-21T00:55:23.600Z,17.15
2018-10-21T00:57:55.190Z,17.52
2018-10-21T01:00:24.485Z,13.32
2018-10-21T01:02:55.229Z,15.75
2018-10-21T01:05:24.443Z,13.38
2018-10-21T01:07:54.877Z,15.20
2018-10-21T01:10:24.202Z,14.00
2018-10-21T01:12:53.377Z,16.25
2018-10-21T01:15:23.182Z,17.50
2018-10-21T01:17:52.494Z,16.40
2018-10-21T01:20:22.152Z,16.80
2018-10-21T01:22:51.334Z,18.37
2018-10-21T01:25:20.603Z,19.10
2018-10-21T01:27:53.323Z,18.67
2018-10-21T01:30:23.834Z,20.02
2018-10-21T01:32:53.763Z,18.15
2018-10-21T01:35:23.383Z,15.00
2018-10-21T01:37:52.944Z,13.80
2018-10-21T01:40:38.215Z,14.93
2018-10-21T01:43:10.463Z,13.53
2018-10-21T01:45:40.011Z,12.68
2018-10-21T01:48:10.447Z,13.98
2018-10-21T01:50:39.803Z,14.00
2018-10-21T01:53:10.084Z,16.00
2018-10-21T01:55:39.359Z,14.28
2018-10-21T01:58:09.776Z,14.55
2018-10-21T02:00:39.761Z,14.38
2018-10-21T02:03:10.295Z,16.55
2018-10-21T02:05:40.018Z,17.07
2018-10-21T02:08:09.635Z,16.87
2018-10-21T02:10:38.917Z,15.58
2018-10-21T02:13:08.369Z,16.07
2018-10-21T02:15:37.710Z,15.23
2018-10-21T02:18:07.033Z,16.50
2018-10-21T02:20:36.249Z,16.30
2018-10-21T02:23:05.775Z,16.15
2018-10-21T02:25:34.973Z,17.77
2018-10-21T02:28:04.472Z,17.35
2018-10-21T02:30:34.579Z,15.32
2018-10-21T02:33:03.840Z,18.73
2018-10-21T02:35:33.055Z,14.87
2018-10-21T02:38:03.046Z,15.93
2018-10-21T02:41:41.190Z,14.65
2018-10-21T02:44:11.726Z,14.33
2018-10-21T02:46:43.524Z,15.35
2018-10-21T02:49:13.327Z,14.35
2018-10-21T02:51:42.859Z,16.00
2018-10-21T02:54:12.105Z,15.30
2018-10-21T02:56:41.484Z,14.80
2018-10-21T02:59:11.551Z,14.10
2018-10-21T03:01:40.804Z,14.73
2018-10-21T03:04:10.044Z,17.35
2018-10-21T03:06:40.996Z,14.05
2018-10-21T03:09:10.338Z,16.90
2018-10-21T03:11:39.839Z,16.15
2018-10-21T03:14:10.013Z,17.30
2018-10-21T03:16:39.444Z,15.35
2018-10-21T03:19:08.690Z,14.58
2018-10-21T03:21:37.971Z,14.68
2018-10-21T03:24:07.393Z,14.70
2018-10-21T03:26:36.786Z,16.80
2018-10-21T03:29:06.125Z,14.00
2018-10-21T03:31:35.393Z,16.20
2018-10-21T03:34:04.832Z,15.65
2018-10-21T03:36:34.012Z,16.77
2018-10-21T03:39:03.513Z,15.30
2018-10-21T03:41:32.916Z,14.70
2018-10-21T03:44:02.131Z,16.50
2018-10-21T03:46:31.418Z,14.75
2018-10-21T03:49:00.819Z,16.77
2018-10-21T03:51:30.198Z,15.98
2018-10-21T03:54:00.090Z,16.10
2018-10-21T03:56:30.339Z,18.75
2018-10-21T03:58:59.577Z,19.35
2018-10-21T04:01:29.570Z,16.55
2018-10-21T04:03:58.782Z,16.62
2018-10-21T04:06:29.865Z,17.75
2018-10-21T04:08:59.081Z,16.73
2018-10-21T04:11:29.426Z,16.40
2018-10-21T04:14:04.252Z,14.70
2018-10-21T04:16:33.629Z,16.25
2018-10-21T04:19:02.869Z,17.30
2018-10-21T04:21:32.080Z,17.30
2018-10-21T04:24:01.523Z,16.93
2018-10-21T04:26:30.927Z,19.50
2018-10-21T04:29:00.290Z,16.77
2018-10-21T04:31:30.406Z,17.48
2018-10-21T04:34:00.402Z,16.27
2018-10-21T04:36:31.703Z,15.83
2018-10-21T04:40:33.943Z,16.57
2018-10-21T04:43:03.826Z,16.02
2018-10-21T04:45:33.444Z,16.52
2018-10-21T04:48:02.815Z,16.93
2018-10-21T04:50:32.668Z,15.25
2018-10-21T04:53:01.897Z,17.52
2018-10-21T04:55:33.209Z,16.93
2018-10-21T04:58:04.513Z,15.72
2018-10-21T05:00:34.381Z,17.77
2018-10-21T05:03:03.511Z,17.90
2018-10-21T05:05:32.723Z,15.88
2018-10-21T05:08:03.040Z,17.25
2018-10-21T05:10:34.194Z,17.80
2018-10-21T05:13:04.184Z,18.05
2018-10-21T05:15:36.055Z,14.95
2018-10-21T05:18:07.692Z,15.45
2018-10-21T05:20:36.889Z,16.87
2018-10-21T05:23:06.076Z,15.58
2018-10-21T05:25:36.189Z,15.80
2018-10-21T05:28:05.536Z,16.73
2018-10-21T05:30:35.053Z,16.62
2018-10-21T05:33:04.291Z,18.40
2018-10-21T05:35:33.518Z,17.12
2018-10-21T05:38:03.294Z,18.02
2018-10-21T05:40:33.567Z,17.77
2018-10-21T05:43:02.666Z,17.02
2018-10-21T05:45:33.037Z,17.90
2018-10-21T05:48:04.425Z,17.42
2018-10-21T05:50:34.237Z,17.57
2018-10-21T05:53:03.808Z,16.90
2018-10-21T05:55:34.731Z,15.83
2018-10-21T05:58:04.763Z,15.55
2018-10-21T06:00:33.895Z,18.32
2018-10-21T06:03:03.191Z,22.20
2018-10-21T06:05:35.209Z,19.85
2018-10-21T06:08:04.977Z,18.45
2018-10-21T06:10:35.481Z,18.87
2018-10-21T06:13:07.083Z,15.75
2018-10-21T06:15:36.331Z,19.57
2018-10-21T06:18:09.421Z,21.65
2018-10-21T06:20:42.937Z,17.70
2018-10-21T06:23:12.133Z,22.93
2018-10-21T06:25:41.623Z,20.80
2018-10-21T06:28:11.992Z,21.73
2018-10-21T06:30:41.245Z,22.02
2018-10-21T06:33:10.424Z,22.00
2018-10-21T06:35:39.623Z,22.27
2018-10-21T06:38:08.982Z,20.60
2018-10-21T06:40:38.182Z,18.85
2018-10-21T06:43:07.480Z,19.48
2018-10-21T06:45:36.713Z,19.50
2018-10-21T06:48:08.010Z,20.80
2018-10-21T06:50:37.871Z,22.75
2018-10-21T06:53:07.342Z,21.60
2018-10-21T06:55:37.161Z,18.45
2018-10-21T06:58:07.295Z,21.97
2018-10-21T07:00:36.544Z,18.82
2018-10-21T07:03:06.509Z,20.65
2018-10-21T07:06:17.531Z,16.75
2018-10-21T07:08:49.017Z,18.40
2018-10-21T07:11:18.304Z,18.77
2018-10-21T07:13:47.575Z,19.92
2018-10-21T07:16:17.963Z,21.17
2018-10-21T07:18:48.063Z,22.48
2018-10-21T07:21:17.733Z,19.55
2018-10-21T07:23:47.846Z,24.05
2018-10-21T07:26:17.353Z,27.62
2018-10-21T07:28:47.550Z,21.40
2018-10-21T07:31:17.556Z,28.15
2018-10-21T07:33:47.190Z,26.00
2018-10-21T07:36:17.210Z,25.65
2018-10-21T07:38:46.501Z,27.93
2018-10-21T07:41:16.572Z,27.02
2018-10-21T07:43:45.871Z,30.97
2018-10-21T07:46:15.339Z,29.42
2018-10-21T07:48:44.999Z,29.57
2018-10-21T07:51:14.290Z,31.17
2018-10-21T07:53:43.593Z,32.17
2018-10-21T07:56:14.922Z,31.80
2018-10-21T07:58:44.123Z,33.70
2018-10-21T08:01:13.335Z,35.92
2018-10-21T08:03:43.196Z,36.60
2018-10-21T08:06:25.203Z,34.95
2018-10-21T08:08:55.149Z,36.20
2018-10-21T08:12:07.822Z,37.40
2018-10-21T08:15:27.607Z,38.58
2018-10-21T08:17:58.014Z,36.98
2018-10-21T08:20:27.638Z,36.28
2018-10-21T08:22:57.750Z,36.15
2018-10-21T08:25:26.964Z,36.00
2018-10-21T08:27:56.396Z,33.92
2018-10-21T08:30:27.217Z,38.98
2018-10-21T08:32:57.469Z,35.30
2018-10-21T08:35:26.735Z,39.20
2018-10-21T08:37:56.101Z,40.40
2018-10-21T08:40:25.392Z,38.45
2018-10-21T08:42:54.632Z,37.85
2018-10-21T08:45:24.089Z,40.00
2018-10-21T08:48:01.792Z,37.78
2018-10-21T08:50:31.046Z,37.28
2018-10-21T08:53:00.328Z,33.65
2018-10-21T08:55:29.508Z,35.10
2018-10-21T08:57:58.940Z,33.95
2018-10-21T09:00:28.182Z,37.50
2018-10-21T09:02:57.411Z,36.77
2018-10-21T09:05:26.619Z,33.75
2018-10-21T09:07:56.350Z,36.23
2018-10-21T09:10:25.761Z,38.83
2018-10-21T09:12:54.943Z,34.92
2018-10-21T09:15:25.068Z,32.67
2018-10-21T09:17:55.406Z,39.13
2018-10-21T09:20:25.010Z,37.48
2018-10-21T09:22:55.481Z,36.88
2018-10-21T09:25:24.691Z,40.52
2018-10-21T09:27:55.099Z,41.35
2018-10-21T09:30:24.413Z,39.35
2018-10-21T09:32:53.804Z,37.93
2018-10-21T09:35:23.031Z,40.75
2018-10-21T09:37:55.925Z,39.65
2018-10-21T09:40:25.319Z,38.25
2018-10-21T09:42:55.456Z,36.20
2018-10-21T09:45:24.757Z,39.38
2018-10-21T09:47:54.509Z,37.55
2018-10-21T09:50:25.145Z,37.33
2018-10-21T09:52:54.561Z,39.42
2018-10-21T09:56:27.335Z,37.00
2018-10-21T09:58:56.672Z,38.78
2018-10-21T10:01:31.728Z,34.27
2018-10-21T10:04:01.102Z,33.78
2018-10-21T10:06:30.487Z,33.05
2018-10-21T10:09:05.138Z,36.48
2018-10-21T10:11:34.375Z,32.88
2018-10-21T10:14:04.761Z,35.68
2018-10-21T10:16:35.188Z,32.83
2018-10-21T10:19:04.744Z,32.60
2018-10-21T10:21:34.301Z,34.90
2018-10-21T10:24:03.734Z,34.00
2018-10-21T10:26:33.192Z,33.80
2018-10-21T10:29:05.132Z,31.95
2018-10-21T10:31:34.452Z,31.68
2018-10-21T10:34:03.774Z,32.95
2018-10-21T10:36:34.058Z,28.32
2018-10-21T10:39:08.024Z,26.57
2018-10-21T10:41:37.780Z,21.93
2018-10-21T10:44:07.084Z,18.90
2018-10-21T10:46:37.432Z,17.20
2018-10-21T10:49:07.693Z,19.00
2018-10-21T10:51:36.830Z,18.85
2018-10-21T10:54:06.447Z,18.80
2018-10-21T10:56:35.861Z,19.30
2018-10-21T10:59:05.179Z,18.65
2018-10-21T11:02:14.804Z,18.57
2018-10-21T11:05:29.287Z,19.17
2018-10-21T11:07:58.870Z,18.35
2018-10-21T11:10:28.547Z,18.05
2018-10-21T11:13:01.417Z,20.50
2018-10-21T11:15:31.090Z,18.80
2018-10-21T11:18:00.613Z,19.35
2018-10-21T11:20:30.096Z,18.85
2018-10-21T11:23:03.844Z,18.70
2018-10-21T11:25:46.529Z,18.23
2018-10-21T11:28:21.208Z,17.62
2018-10-21T11:30:56.078Z,17.07
2018-10-21T11:33:26.654Z,18.15
2018-10-21T11:35:56.346Z,18.45
2018-10-21T11:38:25.803Z,19.55
2018-10-21T11:40:56.283Z,18.35
2018-10-21T11:43:25.931Z,18.37
2018-10-21T11:45:59.359Z,18.92
2018-10-21T11:48:39.542Z,16.48
2018-10-21T11:51:23.444Z,17.20
2018-10-21T11:53:55.053Z,17.98
2018-10-21T11:56:29.599Z,15.98
2018-10-21T11:59:04.003Z,16.40
2018-10-21T12:01:33.484Z,15.60
2018-10-21T12:04:15.011Z,12.85
2018-10-21T12:06:44.515Z,13.50
2018-10-21T12:09:14.220Z,11.50
2018-10-21T12:11:44.248Z,13.78
2018-10-21T12:14:13.850Z,12.58
2018-10-21T12:16:43.478Z,14.68
2018-10-21T12:19:16.095Z,13.22
2018-10-21T12:21:47.871Z,12.70
2018-10-21T12:24:17.363Z,11.95
2018-10-21T12:26:48.728Z,12.58
2018-10-21T12:29:18.064Z,11.22
2018-10-21T12:31:47.286Z,11.75
2018-10-21T12:34:16.544Z,10.32
2018-10-21T12:36:46.887Z,9.85
2018-10-21T12:39:16.483Z,11.80
2018-10-21T12:41:45.983Z,8.80
2018-10-21T12:44:16.742Z,8.83
2018-10-21T12:46:47.169Z,9.43
2018-10-21T12:49:17.089Z,11.85
2018-10-21T12:51:48.490Z,11.10
2018-10-21T12:54:18.501Z,10.80
2018-10-21T12:56:47.976Z,9.73
2018-10-21T12:59:17.207Z,7.15
2018-10-21T13:01:46.479Z,9.15
2018-10-21T13:04:15.801Z,7.83
2018-10-21T13:06:45.261Z,6.35
2018-10-21T13:09:14.546Z,4.50
2018-10-21T13:11:43.767Z,5.42
2018-10-21T13:14:17.011Z,4.53
2018-10-21T13:16:46.449Z,3.37
2018-10-21T13:19:15.723Z,3.35
2018-10-21T13:21:49.819Z,3.00
2018-10-21T13:24:19.796Z,3.00
2018-10-21T13:26:52.467Z,3.02
2018-10-21T13:29:25.229Z,4.55
2018-10-21T13:31:55.770Z,3.10
2018-10-21T13:34:32.441Z,3.12
2018-10-21T13:37:01.994Z,2.70
2018-10-21T13:39:35.713Z,2.80
2018-10-21T13:42:05.680Z,2.02
2018-10-21T13:44:37.351Z,2.00
2018-10-21T13:47:11.229Z,2.47
2018-10-21T13:49:55.880Z,2.87
2018-10-21T13:52:25.638Z,2.00
2018-10-21T13:54:59.246Z,2.07
2018-10-21T13:57:48.127Z,2.50
2018-10-21T14:00:18.121Z,2.97
2018-10-21T14:02:48.856Z,3.20
2018-10-21T14:05:19.266Z,3.13
2018-10-21T14:07:48.651Z,2.23
2018-10-21T14:10:19.792Z,3.40
2018-10-21T14:12:57.731Z,2.37
2018-10-21T14:15:27.140Z,2.53
2018-10-21T14:17:56.470Z,2.90
2018-10-21T14:23:29.684Z,1.70
2018-10-21T14:25:59.244Z,2.13
2018-10-21T14:28:29.973Z,1.43
2018-10-21T14:31:05.112Z,1.40
2018-10-21T14:33:38.161Z,1.80
2018-10-21T14:36:07.612Z,2.20
2018-10-21T14:38:36.997Z,1.97
2018-10-21T14:41:08.445Z,2.00
2018-10-21T14:43:38.439Z,2.03
2018-10-21T14:46:12.114Z,2.57
2018-10-21T14:48:43.630Z,1.80
2018-10-21T14:51:14.061Z,2.17
2018-10-21T14:53:44.448Z,2.30
2018-10-21T14:56:19.237Z,1.95
2018-10-21T14:58:53.387Z,1.95
2018-10-21T15:01:24.947Z,2.00
2018-10-21T15:03:54.682Z,1.82
2018-10-21T15:06:24.038Z,2.45
2018-10-21T15:08:53.582Z,3.95
2018-10-21T15:11:22.858Z,2.65
2018-10-21T15:13:52.782Z,2.10
2018-10-21T15:16:24.946Z,2.45
2018-10-21T15:18:58.504Z,2.85
2018-10-21T15:21:32.592Z,2.90
2018-10-21T15:24:05.958Z,2.92
2018-10-21T15:26:36.225Z,3.12
2018-10-21T15:29:10.332Z,2.50
2018-10-21T15:31:39.567Z,2.45
2018-10-21T15:35:13.223Z,2.98
2018-10-21T15:37:50.739Z,3.42
2018-10-21T15:40:20.243Z,4.05
2018-10-21T15:42:49.500Z,3.05
2018-10-21T15:45:18.748Z,3.62
2018-10-21T15:47:50.748Z,3.35
2018-10-21T15:50:25.748Z,2.72
2018-10-21T15:53:03.295Z,2.33
2018-10-21T15:55:32.742Z,2.67
2018-10-21T15:58:03.339Z,2.37
2018-10-21T16:00:33.581Z,1.90
2018-10-21T16:03:04.148Z,2.40
2018-10-21T16:05:35.244Z,2.58
2018-10-21T16:08:07.413Z,2.85
2018-10-21T16:10:37.619Z,2.80
2018-10-21T16:13:09.715Z,2.27
2018-10-21T16:15:38.953Z,2.55
2018-10-21T16:18:10.001Z,2.72
2018-10-21T16:20:39.200Z,2.72
2018-10-21T16:23:09.834Z,3.37
2018-10-21T16:25:39.365Z,3.20
2018-10-21T16:28:12.301Z,3.05
2018-10-21T16:30:41.529Z,3.52
2018-10-21T16:33:10.798Z,2.60
2018-10-21T16:35:40.193Z,4.05
2018-10-21T16:38:11.027Z,2.67
2018-10-21T16:40:40.268Z,2.35
2018-10-21T16:43:10.371Z,2.22
2018-10-21T16:45:39.781Z,2.15
2018-10-21T16:48:10.194Z,2.12
2018-10-21T16:50:39.437Z,2.52
2018-10-21T16:53:09.597Z,3.55
2018-10-21T16:55:40.976Z,2.65
2018-10-21T16:58:17.580Z,2.22
2018-10-21T17:00:47.624Z,2.15
2018-10-21T17:03:16.779Z,1.50
2018-10-21T17:05:50.689Z,1.60
2018-10-21T17:08:21.094Z,2.45
2018-10-21T17:10:52.487Z,3.00
2018-10-21T17:13:21.622Z,1.70
2018-10-21T17:15:52.545Z,2.27
2018-10-21T17:18:24.099Z,2.02
2018-10-21T17:20:54.761Z,4.30
2018-10-21T17:23:24.901Z,2.33
2018-10-21T17:25:54.984Z,2.05
2018-10-21T17:28:28.832Z,2.35
2018-10-21T17:31:02.379Z,2.37
2018-10-21T17:33:31.704Z,3.00
2018-10-21T17:36:01.071Z,3.05
2018-10-21T17:38:32.503Z,2.95
2018-10-21T17:41:02.121Z,2.72
2018-10-21T17:43:31.373Z,1.98
2018-10-21T17:46:00.968Z,3.05
2018-10-21T17:48:30.152Z,2.35
2018-10-21T17:50:59.413Z,2.22
2018-10-21T17:53:28.666Z,2.27
2018-10-21T17:55:59.640Z,3.60
2018-10-21T17:58:31.120Z,4.30
2018-10-21T18:01:02.637Z,3.27
2018-10-21T18:03:32.655Z,2.47
2018-10-21T18:06:06.776Z,2.20
2018-10-21T18:08:37.268Z,2.20
2018-10-21T18:11:08.175Z,2.17
2018-10-21T18:13:38.968Z,2.05
2018-10-21T18:16:08.325Z,2.67
2018-10-21T18:18:37.574Z,2.02
2018-10-21T18:21:07.334Z,2.80
2018-10-21T18:23:38.722Z,2.92
2018-10-21T18:26:09.034Z,2.30
2018-10-21T18:28:38.807Z,3.75
2018-10-21T18:31:08.183Z,2.30
2018-10-21T18:33:38.359Z,1.85
2018-10-21T18:36:09.578Z,2.30
2018-10-21T18:38:39.825Z,2.00
2018-10-21T18:41:09.650Z,2.12
2018-10-21T18:43:39.196Z,2.55
2018-10-21T18:46:09.024Z,2.42
2018-10-21T18:48:43.611Z,2.70
2018-10-21T18:51:14.570Z,2.37
2018-10-21T18:53:43.890Z,2.12
2018-10-21T18:56:14.117Z,2.98
2018-10-21T18:58:47.768Z,4.80
2018-10-21T19:01:18.708Z,4.55
2018-10-21T19:03:48.257Z,3.40
2018-10-21T19:06:20.246Z,3.15
2018-10-21T19:08:51.026Z,2.45
2018-10-21T19:11:24.659Z,2.40
2018-10-21T19:13:57.690Z,3.02
2018-10-21T19:16:27.593Z,2.70
2018-10-21T19:18:56.864Z,2.90
2018-10-21T19:21:26.197Z,3.58
2018-10-21T19:23:55.414Z,2.75
2018-10-21T19:26:28.798Z,2.70
2018-10-21T19:28:59.033Z,2.12
2018-10-21T19:31:30.904Z,2.70
2018-10-21T19:34:00.629Z,3.70
2018-10-21T19:36:31.048Z,3.15
2018-10-21T19:39:00.405Z,4.95
2018-10-21T19:41:29.885Z,3.05
2018-10-21T19:43:59.227Z,3.05
2018-10-21T19:46:29.108Z,3.77
2018-10-21T19:49:00.096Z,6.12
2018-10-21T19:51:31.280Z,3.70
2018-10-21T19:54:01.314Z,3.25
2018-10-21T19:56:33.168Z,4.15
2018-10-21T19:59:04.226Z,3.67
2018-10-21T20:01:34.762Z,2.50
2018-10-21T20:04:05.228Z,2.95
2018-10-21T20:06:35.246Z,4.17
2018-10-21T20:09:06.757Z,6.55
2018-10-21T20:11:36.090Z,6.10
2018-10-21T20:14:05.593Z,4.45
2018-10-21T20:16:35.223Z,2.98
2018-10-21T20:19:05.208Z,3.92
2018-10-21T20:21:35.194Z,4.00
2018-10-21T20:24:04.569Z,3.95
2018-10-21T20:26:35.126Z,3.50
2018-10-21T20:29:04.779Z,3.45
2018-10-21T20:31:34.098Z,4.20
2018-10-21T20:34:19.947Z,3.45
2018-10-21T20:36:50.380Z,3.52
2018-10-21T20:39:19.612Z,3.47
2018-10-21T20:41:48.941Z,3.95
2018-10-21T20:44:20.942Z,3.70
2018-10-21T20:46:51.637Z,3.60
2018-10-21T20:49:21.263Z,3.92
2018-10-21T20:51:50.510Z,4.72
2018-10-21T20:54:19.878Z,5.12
2018-10-21T20:56:49.195Z,6.10
2018-10-21T20:59:19.158Z,4.85
2018-10-21T21:01:48.369Z,4.40
2018-10-21T21:04:18.923Z,4.87
2018-10-21T21:06:48.276Z,4.05
2018-10-21T21:09:21.551Z,4.10
2018-10-21T21:11:51.007Z,4.00
2018-10-21T21:14:21.664Z,4.70
2018-10-21T21:16:51.010Z,4.70
2018-10-21T21:19:21.437Z,5.85
2018-10-21T21:21:51.318Z,4.05
2018-10-21T21:24:20.588Z,6.67
2018-10-21T21:26:50.273Z,5.90
2018-10-21T21:29:20.453Z,5.72
2018-10-21T21:31:49.698Z,6.12
2018-10-21T21:34:19.518Z,6.35
2018-10-21T21:36:49.749Z,6.85
2018-10-21T21:39:19.676Z,5.42
2018-10-21T21:41:49.035Z,4.40
2018-10-21T21:44:18.989Z,4.45
2018-10-21T21:46:49.013Z,4.83
2018-10-21T21:49:19.281Z,3.70
2018-10-21T21:51:48.537Z,5.03
2018-10-21T21:54:19.251Z,3.90
2018-10-21T21:56:48.578Z,3.58
2018-10-21T21:59:18.185Z,3.25
2018-10-21T22:01:47.849Z,4.00
2018-10-21T22:04:17.221Z,4.80
2018-10-21T22:06:46.754Z,4.58
2018-10-21T22:09:15.982Z,4.05
2018-10-21T22:11:45.238Z,3.98
2018-10-21T22:14:14.765Z,4.37
2018-10-21T22:16:50.471Z,4.05
2018-10-21T22:19:21.700Z,4.45
2018-10-21T22:21:52.634Z,4.75
2018-10-21T22:24:22.793Z,5.42
2018-10-21T22:26:53.233Z,4.80
2018-10-21T22:29:23.247Z,5.90
2018-10-21T22:31:52.443Z,4.83
2018-10-21T22:34:22.940Z,4.45
2018-10-21T22:36:52.649Z,5.10
2018-10-21T22:39:23.025Z,4.60
2018-10-21T22:41:52.295Z,4.72
2018-10-21T22:44:22.953Z,4.83
2018-10-21T22:46:53.556Z,4.30
2018-10-21T22:49:25.225Z,3.83
2018-10-21T22:51:54.553Z,5.95
2018-10-21T22:54:24.802Z,6.30
2018-10-21T22:56:55.153Z,6.28
2018-10-21T22:59:24.702Z,4.92
2018-10-21T23:01:54.114Z,6.47
2018-10-21T23:04:24.623Z,5.65
2018-10-21T23:06:53.950Z,5.83
2018-10-21T23:09:23.943Z,6.85
2018-10-21T23:11:53.200Z,5.67
2018-10-21T23:14:23.244Z,5.75
2018-10-21T23:16:52.578Z,5.75
2018-10-21T23:19:55.440Z,6.12
2018-10-21T23:22:25.020Z,4.92
2018-10-21T23:24:54.279Z,5.80
2018-10-21T23:27:24.256Z,4.40
2018-10-21T23:29:53.527Z,5.25
2018-10-21T23:32:23.152Z,5.42
2018-10-21T23:34:52.470Z,5.10
2018-10-21T23:37:24.095Z,4.60
2018-10-21T23:39:53.277Z,5.00
2018-10-21T23:42:22.469Z,5.78
2018-10-21T23:44:52.345Z,3.83
2018-10-21T23:47:21.646Z,5.30
2018-10-21T23:49:50.889Z,5.58
2018-10-21T23:52:20.185Z,5.42
2018-10-21T23:54:49.409Z,5.30
2018-10-21T23:57:18.991Z,4.83
2018-10-21T23:59:48.172Z,5.58
